Kleinzicken, Austria

9:29 PM CEST on September 25, 2016 (GMT +0200)
Kleinzicken | | Change Station

Elev 869 ft 47.21 °N, 16.34 °E | Updated 9 minutes ago

Mostly Cloudy
Mostly Cloudy
58.8 °F
Feels Like 58.8 °F
N
1.2
Wind Variable Wind from SW
Gusts 2.5 mph

Today
High -- | Low -- °F
--% Chance of Precip.
Yesterday
High -- | Low -- °F
Precip. -- in
Pressure 30.15 in
Visibility 6.2 miles
Clouds Mostly Cloudy 5500 ft
Dew Point 50 °F
Humidity 74%
Rainfall 0.00 in
Snow Depth Not available.
6:45 AM 6:45 PM
Waning Crescent, 25% visible
METAR LOWG 251920Z 33002KT 9999 BKN055 14/10 Q1021 NOSIG
Pressure 30.15 in
Visibility 6.2 miles
Clouds Mostly Cloudy 5500 ft
Dew Point 50 °F
Humidity 74%
Rainfall 0.00 in
Snow Depth Not available.
6:45 AM 6:45 PM
Waning Crescent, 25% visible
METAR LOWG 251920Z 33002KT 9999 BKN055 14/10 Q1021 NOSIG

10-Day Weather Forecast

×

Almanac

Astronomy

Sep. 25, 2016 Rise Set
Actual Time
Civil Twilight
Nautical Twilight
Astronomical Twilight
Moon
Length of Visible Light
Length of Day
Tomorrow will be .
, % of the Moon is Illuminated

Today's Extremes

Country Highs Country Lows

Community

WunderPhotos

Upload Photos

1,941,703 photos uploaded!

WunderBlog® & News

Nearby

Air Quality

  Air Quality AQ Index Pollutant
Not available.

Snow Depth

Station Depth Elevation

Earthquake Activity

City Distance Mag. Time & Date
Minimum magnitude displayed is 2.5.

Coastal Water Temperatures

Place Temperature

Stations

Nearby Weather Stations

Station Location Temp. Windchill Dew Point Humidity Wind Precip. Elev Updated Type